createdAt,value
2019-04-21T00:01:06.702Z,13.87
2019-04-21T00:03:40.802Z,16.30
2019-04-21T00:06:33.630Z,16.87
2019-04-21T00:09:02.359Z,15.70
2019-04-21T00:11:36.255Z,14.60
2019-04-21T00:13:56.197Z,16.33
2019-04-21T00:16:23.784Z,14.83
2019-04-21T00:19:02.589Z,18.37
2019-04-21T00:21:34.504Z,18.20
2019-04-21T00:24:24.812Z,13.43
2019-04-21T00:27:03.828Z,14.80
2019-04-21T00:32:05.601Z,14.43
2019-04-21T00:34:23.722Z,15.50
2019-04-21T00:37:08.317Z,17.77
2019-04-21T00:39:55.802Z,17.00
2019-04-21T00:42:18.404Z,18.23
2019-04-21T00:44:44.377Z,20.03
2019-04-21T00:47:27.786Z,17.33
2019-04-21T00:50:03.571Z,15.70
2019-04-21T00:52:58.159Z,18.63
2019-04-21T00:55:44.598Z,15.30
2019-04-21T00:58:19.441Z,18.97
2019-04-21T01:00:46.226Z,13.07
2019-04-21T01:03:20.633Z,13.43
2019-04-21T01:05:51.699Z,14.30
2019-04-21T01:08:21.794Z,17.13
2019-04-21T01:10:45.860Z,13.83
2019-04-21T01:13:27.282Z,13.53
2019-04-21T01:15:59.578Z,13.43
2019-04-21T01:18:32.899Z,14.00
2019-04-21T01:20:42.760Z,10.00
2019-04-21T01:23:14.626Z,12.63
2019-04-21T01:26:00.821Z,12.20
2019-04-21T01:28:38.214Z,14.70
2019-04-21T01:31:11.012Z,15.07
2019-04-21T01:33:44.699Z,12.60
2019-04-21T01:36:14.513Z,13.47
2019-04-21T01:38:58.004Z,13.20
2019-04-21T01:41:29.602Z,16.47
2019-04-21T01:43:53.518Z,13.17
2019-04-21T01:46:21.887Z,16.03
2019-04-21T01:48:54.239Z,15.03
2019-04-21T01:51:26.033Z,18.63
2019-04-21T01:54:09.244Z,12.97
2019-04-21T01:56:53.981Z,17.57
2019-04-21T01:59:14.098Z,19.60
2019-04-21T02:02:02.058Z,22.53
2019-04-21T02:04:36.449Z,23.73
2019-04-21T02:07:03.097Z,20.30
2019-04-21T02:09:38.169Z,17.23
2019-04-21T02:12:13.503Z,15.60
2019-04-21T02:14:51.141Z,14.13
2019-04-21T02:17:18.707Z,14.43
2019-04-21T02:19:44.589Z,16.03
2019-04-21T02:22:24.618Z,15.37
2019-04-21T02:24:57.788Z,14.83
2019-04-21T02:27:29.838Z,21.23
2019-04-21T02:30:03.473Z,13.37
2019-04-21T02:32:45.733Z,16.50
2019-04-21T02:37:55.594Z,15.73
2019-04-21T02:40:22.327Z,16.63
2019-04-21T02:45:34.238Z,15.53
2019-04-21T02:50:34.053Z,15.10
2019-04-21T02:53:01.421Z,14.87
2019-04-21T02:55:42.050Z,14.20
2019-04-21T02:58:18.729Z,16.03
2019-04-21T03:00:45.034Z,17.13
2019-04-21T03:03:41.734Z,15.93
2019-04-21T03:06:31.440Z,19.40
2019-04-21T03:11:24.519Z,18.63
2019-04-21T03:13:56.761Z,23.67
2019-04-21T03:16:31.498Z,17.10
2019-04-21T03:19:15.360Z,17.60
2019-04-21T03:21:28.967Z,21.10
2019-04-21T03:24:04.823Z,17.47
2019-04-21T03:26:50.474Z,19.97
2019-04-21T03:29:12.520Z,20.00
2019-04-21T03:32:04.376Z,18.63
2019-04-21T03:39:18.314Z,24.43
2019-04-21T03:42:01.974Z,18.93
2019-04-21T03:44:26.317Z,17.97
2019-04-21T03:46:55.673Z,20.77
2019-04-21T03:49:40.374Z,19.10
2019-04-21T03:52:09.001Z,18.33
2019-04-21T03:54:37.042Z,19.07
2019-04-21T03:59:36.791Z,20.33
2019-04-21T04:02:31.233Z,26.20
2019-04-21T04:04:52.998Z,17.50
2019-04-21T04:07:44.214Z,22.13
2019-04-21T04:12:36.554Z,24.20
2019-04-21T04:15:12.102Z,32.40
2019-04-21T04:17:40.062Z,26.83
2019-04-21T04:20:22.212Z,24.57
2019-04-21T04:25:17.500Z,20.03
2019-04-21T04:30:32.000Z,22.03
2019-04-21T04:33:02.518Z,14.77
2019-04-21T04:35:46.210Z,16.83
2019-04-21T04:38:03.338Z,18.60
2019-04-21T04:41:04.347Z,18.93
2019-04-21T04:43:30.478Z,21.67
2019-04-21T04:48:29.168Z,27.23
2019-04-21T04:51:02.040Z,23.83
2019-04-21T04:56:12.338Z,22.80
2019-04-21T04:58:59.562Z,24.27
2019-04-21T05:14:18.282Z,24.13
2019-04-21T05:23:59.933Z,20.80
2019-04-21T05:26:34.546Z,23.57
2019-04-21T05:29:01.844Z,19.40
2019-04-21T05:31:50.267Z,21.63
2019-04-21T05:34:27.398Z,21.97
2019-04-21T05:37:02.651Z,24.43
2019-04-21T05:39:36.095Z,16.33
2019-04-21T05:42:00.727Z,17.53
2019-04-21T05:44:59.918Z,48.77
2019-04-21T05:47:25.005Z,16.77
2019-04-21T05:49:49.892Z,20.77
2019-04-21T05:52:22.794Z,18.67
2019-04-21T05:55:03.971Z,16.37
2019-04-21T05:57:29.116Z,19.70
2019-04-21T06:00:06.189Z,18.30
2019-04-21T06:02:36.663Z,17.77
2019-04-21T06:05:47.399Z,45.97
2019-04-21T06:07:41.271Z,14.23
2019-04-21T06:10:18.371Z,22.70
2019-04-21T06:12:53.813Z,16.33
2019-04-21T06:15:19.695Z,17.00
2019-04-21T06:17:57.878Z,25.17
2019-04-21T06:20:28.787Z,20.50
2019-04-21T06:23:00.851Z,17.83
2019-04-21T06:25:57.508Z,21.10
2019-04-21T06:28:03.601Z,19.17
2019-04-21T06:30:42.389Z,16.80
2019-04-21T06:33:01.746Z,19.73
2019-04-21T06:36:09.006Z,27.80
2019-04-21T06:38:28.429Z,22.60
2019-04-21T06:40:48.440Z,16.67
2019-04-21T06:43:40.371Z,17.13
2019-04-21T06:45:54.219Z,13.13
2019-04-21T06:48:37.313Z,18.30
2019-04-21T06:51:06.977Z,12.33
2019-04-21T06:53:40.847Z,13.17
2019-04-21T06:56:10.482Z,10.70
2019-04-21T06:58:35.578Z,14.40
2019-04-21T07:01:15.843Z,13.37
2019-04-21T07:03:49.306Z,16.97
2019-04-21T07:06:12.704Z,23.03
2019-04-21T07:08:52.940Z,12.30
2019-04-21T07:11:19.871Z,71.07
2019-04-21T07:14:01.930Z,10.50
2019-04-21T07:16:25.699Z,6.23
2019-04-21T07:19:07.150Z,9.17
2019-04-21T07:21:32.461Z,8.00
2019-04-21T07:24:05.408Z,7.90
2019-04-21T07:26:36.912Z,7.87
2019-04-21T07:29:17.115Z,11.87
2019-04-21T07:31:52.521Z,15.73
2019-04-21T07:34:19.753Z,9.10
2019-04-21T07:36:59.643Z,9.20
2019-04-21T07:39:18.509Z,15.30
2019-04-21T07:41:47.111Z,12.30
2019-04-21T07:44:21.032Z,11.10
2019-04-21T07:46:45.280Z,13.37
2019-04-21T07:49:46.711Z,7.23
2019-04-21T07:52:35.108Z,12.67
2019-04-21T07:57:35.154Z,5.30
2019-04-21T08:00:26.880Z,7.33
2019-04-21T08:02:40.639Z,7.10
2019-04-21T08:07:51.972Z,5.70
2019-04-21T08:10:15.618Z,7.17
2019-04-21T08:12:48.914Z,6.90
2019-04-21T08:15:30.628Z,8.87
2019-04-21T08:17:53.360Z,8.93
2019-04-21T08:20:31.389Z,9.53
2019-04-21T08:23:11.060Z,8.27
2019-04-21T08:25:34.909Z,20.33
2019-04-21T08:28:05.712Z,7.47
2019-04-21T08:30:54.356Z,8.00
2019-04-21T08:33:26.241Z,6.50
2019-04-21T08:36:06.008Z,8.10
2019-04-21T08:38:20.059Z,8.17
2019-04-21T08:40:51.073Z,7.03
2019-04-21T08:43:30.676Z,8.37
2019-04-21T08:45:57.672Z,11.77
2019-04-21T08:48:33.443Z,9.73
2019-04-21T08:51:18.526Z,8.83
2019-04-21T08:53:34.898Z,7.00
2019-04-21T08:56:09.996Z,13.53
2019-04-21T08:59:07.484Z,12.00
2019-04-21T09:01:50.083Z,6.70
2019-04-21T09:04:23.364Z,12.13
2019-04-21T09:09:31.956Z,8.70
2019-04-21T09:12:02.707Z,7.87
2019-04-21T09:14:36.397Z,9.00
2019-04-21T09:17:01.656Z,5.50
2019-04-21T09:22:13.199Z,6.97
2019-04-21T09:24:43.013Z,9.00
2019-04-21T09:27:15.853Z,7.33
2019-04-21T09:29:38.310Z,13.73
2019-04-21T09:32:03.423Z,14.00
2019-04-21T09:34:38.535Z,8.23
2019-04-21T09:37:23.549Z,6.10
2019-04-21T09:39:43.720Z,9.53
2019-04-21T09:42:11.559Z,6.33
2019-04-21T09:44:44.389Z,8.23
2019-04-21T09:47:19.027Z,12.30
2019-04-21T09:49:47.456Z,9.27
2019-04-21T09:52:20.933Z,8.63
2019-04-21T09:54:58.635Z,7.10
2019-04-21T09:57:34.685Z,11.33
2019-04-21T10:00:02.471Z,7.10
2019-04-21T10:02:39.957Z,15.07
2019-04-21T10:05:02.316Z,10.33
2019-04-21T10:07:37.046Z,12.40
2019-04-21T10:10:08.358Z,10.23
2019-04-21T10:12:39.175Z,8.33
2019-04-21T10:15:10.674Z,12.47
2019-04-21T10:17:43.953Z,6.13
2019-04-21T10:20:15.028Z,10.50
2019-04-21T10:22:46.758Z,12.67
2019-04-21T10:25:18.688Z,6.90
2019-04-21T10:27:49.650Z,8.50
2019-04-21T10:30:20.551Z,9.80
2019-04-21T10:32:54.393Z,9.83
2019-04-21T10:35:26.204Z,7.83
2019-04-21T10:38:06.748Z,8.90
2019-04-21T10:40:33.141Z,12.33
2019-04-21T10:43:01.650Z,7.33
2019-04-21T10:45:32.784Z,9.77
2019-04-21T10:48:05.145Z,7.10
2019-04-21T10:50:37.041Z,6.23
2019-04-21T10:53:09.345Z,8.93
2019-04-21T10:55:55.693Z,12.47
2019-04-21T10:58:20.366Z,10.13
2019-04-21T11:00:52.785Z,10.47
2019-04-21T11:03:35.304Z,7.53
2019-04-21T11:06:08.498Z,9.30
2019-04-21T11:08:44.120Z,9.63
2019-04-21T11:11:14.135Z,12.93
2019-04-21T11:13:46.290Z,9.73
2019-04-21T11:16:19.331Z,10.23
2019-04-21T11:18:49.955Z,9.40
2019-04-21T11:21:20.853Z,9.23
2019-04-21T11:23:52.208Z,7.17
2019-04-21T11:26:24.522Z,13.43
2019-04-21T11:28:58.902Z,9.90
2019-04-21T11:31:29.616Z,8.10
2019-04-21T11:34:00.909Z,10.83
2019-04-21T11:36:33.171Z,9.00
2019-04-21T11:39:27.232Z,11.20
2019-04-21T11:41:45.782Z,10.57
2019-04-21T11:44:18.294Z,7.13
2019-04-21T11:46:52.179Z,9.90
2019-04-21T11:49:24.244Z,9.20
2019-04-21T11:51:56.495Z,9.40
2019-04-21T11:54:28.792Z,7.80
2019-04-21T11:57:03.166Z,6.90
2019-04-21T11:59:33.449Z,7.43
2019-04-21T12:02:05.575Z,6.20
2019-04-21T12:04:36.371Z,9.30
2019-04-21T12:07:07.270Z,7.73
2019-04-21T12:09:39.470Z,8.50
2019-04-21T12:12:11.598Z,7.80
2019-04-21T12:14:43.827Z,7.20
2019-04-21T12:17:16.054Z,11.10
2019-04-21T12:19:48.552Z,9.37
2019-04-21T12:22:23.842Z,8.20
2019-04-21T12:24:51.743Z,7.83
2019-04-21T12:27:22.530Z,7.20
2019-04-21T12:29:53.479Z,10.90
2019-04-21T12:32:26.327Z,7.33
2019-04-21T12:34:57.823Z,8.27
2019-04-21T12:37:28.993Z,9.43
2019-04-21T12:40:00.800Z,9.93
2019-04-21T12:42:32.411Z,8.20
2019-04-21T12:45:08.169Z,6.23
2019-04-21T12:47:40.186Z,7.93
2019-04-21T12:50:12.773Z,7.63
2019-04-21T12:52:43.660Z,5.90
2019-04-21T12:55:15.467Z,6.57
2019-04-21T12:57:47.581Z,8.87
2019-04-21T13:00:20.900Z,8.13
2019-04-21T13:02:52.015Z,10.47
2019-04-21T13:05:22.805Z,16.67
2019-04-21T13:07:53.623Z,3.70
2019-04-21T13:10:24.436Z,6.73
2019-04-21T13:12:56.287Z,8.73
2019-04-21T13:15:27.404Z,8.53
2019-04-21T13:17:58.482Z,7.23
2019-04-21T13:20:32.071Z,5.47
2019-04-21T13:23:03.815Z,9.97
2019-04-21T13:25:35.939Z,10.63
2019-04-21T13:28:07.040Z,6.63
2019-04-21T13:30:40.226Z,12.70
2019-04-21T13:33:11.368Z,7.73
2019-04-21T13:35:44.496Z,7.63
2019-04-21T13:38:24.361Z,8.53
2019-04-21T13:41:22.847Z,7.00
2019-04-21T13:43:39.174Z,7.13
2019-04-21T13:46:10.270Z,6.53
2019-04-21T13:48:42.401Z,12.97
2019-04-21T13:51:13.563Z,6.90
2019-04-21T13:53:45.653Z,9.50
2019-04-21T13:56:18.361Z,15.37
2019-04-21T13:58:50.496Z,7.47
2019-04-21T14:01:27.687Z,8.00
2019-04-21T14:03:59.407Z,8.57
2019-04-21T14:06:32.138Z,12.43
2019-04-21T14:09:07.311Z,7.23
2019-04-21T14:11:38.076Z,5.30
2019-04-21T14:14:10.265Z,12.77
2019-04-21T14:16:42.230Z,8.37
2019-04-21T14:19:13.207Z,7.33
2019-04-21T14:21:46.423Z,10.17
2019-04-21T14:24:17.217Z,10.57
2019-04-21T14:26:48.025Z,8.50
2019-04-21T14:29:21.661Z,9.07
2019-04-21T14:31:52.549Z,6.57
2019-04-21T14:34:23.865Z,10.03
2019-04-21T14:36:55.008Z,7.17
2019-04-21T14:39:26.410Z,9.20
2019-04-21T14:41:58.138Z,9.53
2019-04-21T14:44:29.225Z,9.27
2019-04-21T14:47:01.380Z,9.83
2019-04-21T14:49:53.214Z,10.27
2019-04-21T14:52:26.852Z,8.13
2019-04-21T14:55:02.841Z,8.30
2019-04-21T14:57:33.596Z,12.77
2019-04-21T15:00:13.420Z,9.00
2019-04-21T15:02:45.476Z,10.67
2019-04-21T15:05:17.567Z,11.37
2019-04-21T15:07:48.959Z,10.63
2019-04-21T15:10:25.256Z,8.70
2019-04-21T15:12:52.109Z,12.90
2019-04-21T15:15:25.569Z,15.53
2019-04-21T15:17:57.817Z,11.57
2019-04-21T15:20:29.028Z,10.93
2019-04-21T15:23:00.121Z,9.17
2019-04-21T15:25:32.235Z,12.97
2019-04-21T15:28:05.442Z,7.90
2019-04-21T15:30:36.601Z,11.30
2019-04-21T15:33:08.556Z,8.07
2019-04-21T15:35:40.681Z,11.73
2019-04-21T15:38:11.842Z,9.70
2019-04-21T15:40:51.522Z,9.30
2019-04-21T15:43:15.081Z,17.47
2019-04-21T15:45:46.774Z,8.97
2019-04-21T15:48:18.249Z,13.47
2019-04-21T15:50:51.531Z,14.87
2019-04-21T15:53:23.603Z,15.57
2019-04-21T15:55:58.993Z,12.53
2019-04-21T15:58:32.421Z,13.13
2019-04-21T16:01:04.851Z,13.83
2019-04-21T16:03:36.534Z,13.50
2019-04-21T16:06:07.705Z,20.73
2019-04-21T16:08:39.531Z,18.80
2019-04-21T16:11:11.364Z,12.27
2019-04-21T16:13:43.524Z,12.63
2019-04-21T16:16:16.751Z,13.77
2019-04-21T16:18:47.907Z,12.17
2019-04-21T16:21:22.153Z,13.00
2019-04-21T16:23:54.144Z,19.23
2019-04-21T16:26:26.443Z,15.33
2019-04-21T16:28:57.518Z,12.53
2019-04-21T16:31:28.157Z,14.93
2019-04-21T16:33:58.903Z,13.57
2019-04-21T16:36:29.635Z,13.97
2019-04-21T16:39:01.737Z,13.63
2019-04-21T16:41:33.956Z,17.83
2019-04-21T16:44:05.167Z,16.37
2019-04-21T16:46:35.806Z,17.77
2019-04-21T16:49:07.541Z,18.33
2019-04-21T16:51:38.476Z,21.23
2019-04-21T16:54:14.078Z,26.23
2019-04-21T16:56:50.077Z,29.77
2019-04-21T16:59:22.524Z,32.60
2019-04-21T17:01:54.447Z,40.70
2019-04-21T17:04:28.617Z,25.53
2019-04-21T17:07:00.871Z,29.17
2019-04-21T17:09:32.630Z,29.47
2019-04-21T17:12:07.404Z,43.17
2019-04-21T17:14:53.657Z,24.63
2019-04-21T17:17:32.279Z,21.60
2019-04-21T17:19:46.566Z,25.63
2019-04-21T17:22:13.871Z,24.47
2019-04-21T17:24:46.391Z,20.17
2019-04-21T17:27:17.484Z,18.80
2019-04-21T17:29:48.681Z,24.67
2019-04-21T17:32:20.478Z,22.13
2019-04-21T17:34:52.161Z,19.87
2019-04-21T17:37:25.125Z,16.80
2019-04-21T17:39:56.508Z,21.83
2019-04-21T17:42:36.365Z,15.23
2019-04-21T17:45:01.306Z,18.77
2019-04-21T17:47:45.004Z,20.53
2019-04-21T17:50:23.283Z,19.00
2019-04-21T17:53:06.541Z,24.97
2019-04-21T17:55:40.650Z,19.53
2019-04-21T17:58:27.268Z,20.37
2019-04-21T18:06:06.372Z,20.00
2019-04-21T18:08:47.420Z,19.10
2019-04-21T18:11:15.382Z,17.57
2019-04-21T18:13:37.592Z,16.03
2019-04-21T18:16:20.191Z,19.87
2019-04-21T18:18:41.181Z,19.47
2019-04-21T18:21:14.539Z,20.67
2019-04-21T18:24:00.138Z,18.07
2019-04-21T18:26:38.015Z,17.60
2019-04-21T18:29:03.417Z,20.27
2019-04-21T18:31:44.819Z,16.43
2019-04-21T18:34:22.798Z,21.73
2019-04-21T18:36:55.602Z,17.43
2019-04-21T18:39:45.314Z,22.70
2019-04-21T18:42:26.255Z,21.33
2019-04-21T18:45:37.242Z,19.97
2019-04-21T18:48:01.385Z,20.40
2019-04-21T18:50:41.759Z,17.93
2019-04-21T18:53:25.616Z,19.17
2019-04-21T18:55:57.536Z,20.80
2019-04-21T18:58:20.073Z,21.43
2019-04-21T19:00:52.943Z,33.13
2019-04-21T19:03:28.137Z,25.77
2019-04-21T19:06:05.145Z,20.97
2019-04-21T19:08:53.632Z,21.57
2019-04-21T19:14:32.322Z,19.13
2019-04-21T19:17:00.484Z,16.33
2019-04-21T19:19:54.364Z,19.00
2019-04-21T19:22:40.181Z,24.33
2019-04-21T19:25:16.416Z,16.57
2019-04-21T19:27:53.273Z,22.00
2019-04-21T19:30:29.825Z,19.83
2019-04-21T19:32:59.395Z,18.10
2019-04-21T19:35:14.955Z,20.50
2019-04-21T19:37:56.416Z,20.87
2019-04-21T19:40:40.857Z,21.93
2019-04-21T19:43:07.048Z,19.17
2019-04-21T19:45:42.262Z,19.33
2019-04-21T19:48:18.426Z,23.67
2019-04-21T19:50:57.845Z,19.93
2019-04-21T19:53:24.281Z,18.03
2019-04-21T19:55:40.610Z,18.50
2019-04-21T19:58:12.636Z,22.27
2019-04-21T20:00:44.472Z,19.83
2019-04-21T20:03:16.495Z,21.23
2019-04-21T20:05:59.275Z,23.70
2019-04-21T20:08:36.719Z,21.83
2019-04-21T20:11:10.448Z,25.67
2019-04-21T20:14:30.705Z,19.87
2019-04-21T20:16:18.976Z,23.20
2019-04-21T20:18:41.650Z,28.33
2019-04-21T20:21:06.112Z,22.50
2019-04-21T20:23:39.672Z,24.57
2019-04-21T20:26:11.525Z,27.53
2019-04-21T20:28:54.703Z,23.37
2019-04-21T20:31:36.072Z,23.13
2019-04-21T20:34:21.231Z,26.50
2019-04-21T20:36:47.637Z,30.87
2019-04-21T20:39:08.292Z,29.20
2019-04-21T20:41:47.663Z,34.43
2019-04-21T20:44:23.073Z,32.53
2019-04-21T20:46:59.654Z,45.87
2019-04-21T20:49:27.306Z,40.53
2019-04-21T20:52:10.814Z,37.73
2019-04-21T20:54:44.040Z,39.50
2019-04-21T20:57:11.469Z,36.47
2019-04-21T20:59:43.924Z,29.93
2019-04-21T21:02:19.957Z,28.73
2019-04-21T21:04:45.707Z,31.03
2019-04-21T21:07:40.493Z,30.90
2019-04-21T21:10:04.983Z,34.80
2019-04-21T21:12:42.969Z,35.27
2019-04-21T21:15:01.181Z,34.00
2019-04-21T21:17:48.419Z,26.07
2019-04-21T21:20:21.361Z,30.40
2019-04-21T21:22:42.280Z,29.33
2019-04-21T21:25:25.837Z,36.93
2019-04-21T21:27:48.273Z,36.33
2019-04-21T21:30:23.140Z,30.97
2019-04-21T21:33:05.684Z,26.33
2019-04-21T21:35:34.590Z,24.47
2019-04-21T21:38:09.949Z,24.07
2019-04-21T21:40:36.620Z,32.77
2019-04-21T21:42:57.325Z,22.80
2019-04-21T21:45:30.648Z,23.57
2019-04-21T21:48:20.818Z,23.17
2019-04-21T21:50:45.915Z,23.47
2019-04-21T21:53:14.497Z,22.40
2019-04-21T21:55:42.654Z,16.97
2019-04-21T21:58:19.380Z,19.50
2019-04-21T22:00:54.639Z,20.20
2019-04-21T22:03:28.375Z,18.40
2019-04-21T22:06:07.300Z,19.67
2019-04-21T22:08:32.378Z,15.10
2019-04-21T22:11:03.334Z,19.07
2019-04-21T22:13:47.530Z,16.07
2019-04-21T22:16:14.394Z,19.23
2019-04-21T22:19:11.458Z,15.30
2019-04-21T22:21:38.579Z,16.50
2019-04-21T22:23:57.651Z,17.40
2019-04-21T22:26:21.478Z,21.73
2019-04-21T22:28:53.807Z,16.10
2019-04-21T22:31:31.582Z,23.37
2019-04-21T22:34:04.821Z,21.73
2019-04-21T22:36:44.437Z,16.47
2019-04-21T22:39:24.764Z,17.23
2019-04-21T22:41:45.273Z,13.10
2019-04-21T22:44:18.762Z,17.77
2019-04-21T22:46:59.970Z,16.07
2019-04-21T22:49:23.731Z,14.70
2019-04-21T22:51:55.672Z,14.27
2019-04-21T22:54:32.618Z,14.63
2019-04-21T22:57:05.227Z,15.60
2019-04-21T22:59:32.421Z,16.50
2019-04-21T23:02:06.363Z,15.47
2019-04-21T23:04:43.513Z,19.07
2019-04-21T23:07:13.573Z,17.03
2019-04-21T23:09:42.955Z,16.23
2019-04-21T23:12:20.431Z,17.47
2019-04-21T23:14:55.483Z,20.10
2019-04-21T23:17:38.928Z,17.50
2019-04-21T23:20:10.258Z,15.43
2019-04-21T23:22:51.369Z,14.67
2019-04-21T23:25:13.623Z,19.00
2019-04-21T23:27:46.971Z,21.17
2019-04-21T23:30:32.274Z,15.97
2019-04-21T23:32:48.821Z,17.90
2019-04-21T23:35:18.016Z,15.93
2019-04-21T23:37:51.041Z,14.00
2019-04-21T23:40:21.357Z,16.50
2019-04-21T23:42:49.203Z,17.33
2019-04-21T23:45:25.112Z,17.90
2019-04-21T23:48:10.866Z,15.87
2019-04-21T23:50:37.909Z,15.83
2019-04-21T23:53:01.645Z,16.77
2019-04-21T23:55:32.464Z,17.23
2019-04-21T23:58:13.401Z,14.97
